sensor_id;sensor_type;location;lat;lon;timestamp;P1;durP1;ratioP1;P2;durP2;ratioP2
13834;SDS011;6988;52.614;13.500;2022-10-16T00:01:33;4.70;;;4.20;;
13834;SDS011;6988;52.614;13.500;2022-10-16T00:06:26;4.30;;;3.03;;
13834;SDS011;6988;52.614;13.500;2022-10-16T00:11:20;3.40;;;3.10;;
13834;SDS011;6988;52.614;13.500;2022-10-16T00:16:14;3.70;;;3.30;;
13834;SDS011;6988;52.614;13.500;2022-10-16T00:21:09;4.30;;;3.50;;
13834;SDS011;6988;52.614;13.500;2022-10-16T00:26:05;4.53;;;3.37;;
13834;SDS011;6988;52.614;13.500;2022-10-16T00:30:58;4.97;;;3.10;;
13834;SDS011;6988;52.614;13.500;2022-10-16T00:35:57;3.60;;;3.30;;
13834;SDS011;6988;52.614;13.500;2022-10-16T00:40:51;3.90;;;3.37;;
13834;SDS011;6988;52.614;13.500;2022-10-16T00:45:43;3.07;;;2.77;;
13834;SDS011;6988;52.614;13.500;2022-10-16T00:50:35;3.90;;;3.03;;
13834;SDS011;6988;52.614;13.500;2022-10-16T00:55:28;2.43;;;2.10;;
13834;SDS011;6988;52.614;13.500;2022-10-16T01:00:22;3.13;;;2.50;;
13834;SDS011;6988;52.614;13.500;2022-10-16T01:05:17;3.10;;;2.13;;
13834;SDS011;6988;52.614;13.500;2022-10-16T01:10:11;2.10;;;1.90;;
13834;SDS011;6988;52.614;13.500;2022-10-16T01:15:18;2.00;;;1.80;;
13834;SDS011;6988;52.614;13.500;2022-10-16T01:20:24;3.43;;;1.73;;
13834;SDS011;6988;52.614;13.500;2022-10-16T01:25:22;1.97;;;1.80;;
13834;SDS011;6988;52.614;13.500;2022-10-16T01:30:29;4.40;;;1.60;;
13834;SDS011;6988;52.614;13.500;2022-10-16T01:35:25;1.47;;;1.37;;
13834;SDS011;6988;52.614;13.500;2022-10-16T01:40:23;2.20;;;1.67;;
13834;SDS011;6988;52.614;13.500;2022-10-16T01:45:19;1.80;;;1.57;;
13834;SDS011;6988;52.614;13.500;2022-10-16T01:50:14;1.93;;;1.60;;
13834;SDS011;6988;52.614;13.500;2022-10-16T01:55:11;2.87;;;1.50;;
13834;SDS011;6988;52.614;13.500;2022-10-16T02:00:10;1.77;;;1.40;;
13834;SDS011;6988;52.614;13.500;2022-10-16T02:05:09;2.10;;;1.50;;
13834;SDS011;6988;52.614;13.500;2022-10-16T02:10:10;1.90;;;1.70;;
13834;SDS011;6988;52.614;13.500;2022-10-16T02:15:03;2.10;;;1.80;;
13834;SDS011;6988;52.614;13.500;2022-10-16T02:19:55;2.20;;;1.60;;
13834;SDS011;6988;52.614;13.500;2022-10-16T02:24:53;1.67;;;1.57;;
13834;SDS011;6988;52.614;13.500;2022-10-16T02:29:51;2.20;;;1.70;;
13834;SDS011;6988;52.614;13.500;2022-10-16T02:34:49;1.53;;;1.43;;
13834;SDS011;6988;52.614;13.500;2022-10-16T02:39:42;2.23;;;2.00;;
13834;SDS011;6988;52.614;13.500;2022-10-16T02:44:35;2.07;;;1.60;;
13834;SDS011;6988;52.614;13.500;2022-10-16T02:49:27;2.23;;;1.63;;
13834;SDS011;6988;52.614;13.500;2022-10-16T02:54:19;1.90;;;1.37;;
13834;SDS011;6988;52.614;13.500;2022-10-16T02:59:10;1.70;;;1.60;;
13834;SDS011;6988;52.614;13.500;2022-10-16T03:04:04;2.07;;;1.60;;
13834;SDS011;6988;52.614;13.500;2022-10-16T03:08:55;2.30;;;1.50;;
13834;SDS011;6988;52.614;13.500;2022-10-16T03:13:47;1.77;;;1.40;;
13834;SDS011;6988;52.614;13.500;2022-10-16T03:18:39;2.17;;;1.53;;
13834;SDS011;6988;52.614;13.500;2022-10-16T03:23:32;2.17;;;1.20;;
13834;SDS011;6988;52.614;13.500;2022-10-16T03:28:24;1.90;;;1.33;;
13834;SDS011;6988;52.614;13.500;2022-10-16T03:33:15;2.77;;;1.57;;
13834;SDS011;6988;52.614;13.500;2022-10-16T03:38:07;1.50;;;1.40;;
13834;SDS011;6988;52.614;13.500;2022-10-16T03:43:00;1.97;;;1.50;;
13834;SDS011;6988;52.614;13.500;2022-10-16T03:47:52;1.70;;;1.60;;
13834;SDS011;6988;52.614;13.500;2022-10-16T03:52:44;2.00;;;1.37;;
13834;SDS011;6988;52.614;13.500;2022-10-16T03:57:35;2.13;;;1.50;;
13834;SDS011;6988;52.614;13.500;2022-10-16T04:02:28;2.50;;;1.43;;
13834;SDS011;6988;52.614;13.500;2022-10-16T04:07:20;1.77;;;1.37;;
13834;SDS011;6988;52.614;13.500;2022-10-16T04:12:12;2.10;;;1.60;;
13834;SDS011;6988;52.614;13.500;2022-10-16T04:17:03;2.57;;;1.47;;
13834;SDS011;6988;52.614;13.500;2022-10-16T04:21:56;1.73;;;1.60;;
13834;SDS011;6988;52.614;13.500;2022-10-16T04:26:48;2.77;;;1.80;;
13834;SDS011;6988;52.614;13.500;2022-10-16T04:31:40;3.00;;;1.67;;
13834;SDS011;6988;52.614;13.500;2022-10-16T04:36:31;2.87;;;1.93;;
13834;SDS011;6988;52.614;13.500;2022-10-16T04:41:24;4.93;;;2.00;;
13834;SDS011;6988;52.614;13.500;2022-10-16T04:46:16;2.80;;;1.60;;
13834;SDS011;6988;52.614;13.500;2022-10-16T04:51:08;1.80;;;1.70;;
13834;SDS011;6988;52.614;13.500;2022-10-16T04:55:59;5.00;;;2.17;;
13834;SDS011;6988;52.614;13.500;2022-10-16T05:00:53;2.47;;;2.00;;
13834;SDS011;6988;52.614;13.500;2022-10-16T05:05:45;2.03;;;1.80;;
13834;SDS011;6988;52.614;13.500;2022-10-16T05:10:37;2.43;;;1.63;;
13834;SDS011;6988;52.614;13.500;2022-10-16T05:15:29;2.23;;;1.77;;
13834;SDS011;6988;52.614;13.500;2022-10-16T05:20:23;2.00;;;1.80;;
13834;SDS011;6988;52.614;13.500;2022-10-16T05:25:15;2.23;;;1.93;;
13834;SDS011;6988;52.614;13.500;2022-10-16T05:30:08;2.13;;;1.93;;
13834;SDS011;6988;52.614;13.500;2022-10-16T05:35:01;2.63;;;1.80;;
13834;SDS011;6988;52.614;13.500;2022-10-16T05:39:54;2.53;;;2.30;;
13834;SDS011;6988;52.614;13.500;2022-10-16T05:44:45;2.10;;;1.90;;
13834;SDS011;6988;52.614;13.500;2022-10-16T05:49:37;3.20;;;2.17;;
13834;SDS011;6988;52.614;13.500;2022-10-16T05:54:29;2.57;;;2.30;;
13834;SDS011;6988;52.614;13.500;2022-10-16T05:59:22;2.93;;;2.57;;
13834;SDS011;6988;52.614;13.500;2022-10-16T06:04:14;3.03;;;2.57;;
13834;SDS011;6988;52.614;13.500;2022-10-16T06:09:05;4.23;;;2.60;;
13834;SDS011;6988;52.614;13.500;2022-10-16T06:13:58;3.27;;;2.70;;
13834;SDS011;6988;52.614;13.500;2022-10-16T06:18:57;4.10;;;2.77;;
13834;SDS011;6988;52.614;13.500;2022-10-16T06:23:50;2.73;;;2.53;;
13834;SDS011;6988;52.614;13.500;2022-10-16T06:28:42;7.93;;;3.23;;
13834;SDS011;6988;52.614;13.500;2022-10-16T06:33:35;3.60;;;2.80;;
13834;SDS011;6988;52.614;13.500;2022-10-16T06:38:29;4.10;;;3.00;;
13834;SDS011;6988;52.614;13.500;2022-10-16T06:43:21;3.17;;;2.53;;
13834;SDS011;6988;52.614;13.500;2022-10-16T06:48:13;4.07;;;2.80;;
13834;SDS011;6988;52.614;13.500;2022-10-16T06:53:04;3.47;;;2.70;;
13834;SDS011;6988;52.614;13.500;2022-10-16T06:57:58;2.73;;;2.20;;
13834;SDS011;6988;52.614;13.500;2022-10-16T07:02:49;2.70;;;2.30;;
13834;SDS011;6988;52.614;13.500;2022-10-16T07:07:41;2.60;;;2.40;;
13834;SDS011;6988;52.614;13.500;2022-10-16T07:12:33;3.30;;;2.63;;
13834;SDS011;6988;52.614;13.500;2022-10-16T07:17:26;2.77;;;2.57;;
13834;SDS011;6988;52.614;13.500;2022-10-16T07:22:17;2.50;;;2.30;;
13834;SDS011;6988;52.614;13.500;2022-10-16T07:27:09;2.97;;;2.10;;
13834;SDS011;6988;52.614;13.500;2022-10-16T07:32:01;3.80;;;2.33;;
13834;SDS011;6988;52.614;13.500;2022-10-16T07:36:54;3.23;;;2.20;;
13834;SDS011;6988;52.614;13.500;2022-10-16T07:41:46;3.33;;;2.20;;
13834;SDS011;6988;52.614;13.500;2022-10-16T07:46:38;1.97;;;1.73;;
13834;SDS011;6988;52.614;13.500;2022-10-16T07:51:30;2.50;;;2.30;;
13834;SDS011;6988;52.614;13.500;2022-10-16T07:56:23;2.57;;;2.10;;
13834;SDS011;6988;52.614;13.500;2022-10-16T08:01:15;4.10;;;1.80;;
13834;SDS011;6988;52.614;13.500;2022-10-16T08:06:09;2.73;;;2.00;;
13834;SDS011;6988;52.614;13.500;2022-10-16T08:11:00;4.03;;;1.90;;
13834;SDS011;6988;52.614;13.500;2022-10-16T08:15:55;2.73;;;2.03;;
13834;SDS011;6988;52.614;13.500;2022-10-16T08:20:46;1.80;;;1.67;;
13834;SDS011;6988;52.614;13.500;2022-10-16T08:25:38;1.67;;;1.57;;
13834;SDS011;6988;52.614;13.500;2022-10-16T08:30:31;2.13;;;1.93;;
13834;SDS011;6988;52.614;13.500;2022-10-16T08:35:24;2.43;;;1.70;;
13834;SDS011;6988;52.614;13.500;2022-10-16T08:40:19;2.93;;;1.73;;
13834;SDS011;6988;52.614;13.500;2022-10-16T08:45:19;2.37;;;1.80;;
13834;SDS011;6988;52.614;13.500;2022-10-16T08:50:27;2.63;;;1.77;;
13834;SDS011;6988;52.614;13.500;2022-10-16T08:55:28;2.07;;;1.60;;
13834;SDS011;6988;52.614;13.500;2022-10-16T09:00:25;1.93;;;1.30;;
13834;SDS011;6988;52.614;13.500;2022-10-16T09:05:21;1.73;;;1.40;;
13834;SDS011;6988;52.614;13.500;2022-10-16T09:10:34;2.07;;;1.17;;
13834;SDS011;6988;52.614;13.500;2022-10-16T09:15:39;2.30;;;1.40;;
13834;SDS011;6988;52.614;13.500;2022-10-16T09:20:44;1.97;;;1.30;;
13834;SDS011;6988;52.614;13.500;2022-10-16T09:25:45;2.00;;;1.33;;
13834;SDS011;6988;52.614;13.500;2022-10-16T09:30:40;3.20;;;1.57;;
13834;SDS011;6988;52.614;13.500;2022-10-16T09:35:32;1.90;;;1.30;;
13834;SDS011;6988;52.614;13.500;2022-10-16T09:40:30;2.20;;;1.27;;
13834;SDS011;6988;52.614;13.500;2022-10-16T09:45:25;2.27;;;1.30;;
13834;SDS011;6988;52.614;13.500;2022-10-16T09:50:21;1.47;;;1.37;;
13834;SDS011;6988;52.614;13.500;2022-10-16T09:55:17;1.90;;;1.53;;
13834;SDS011;6988;52.614;13.500;2022-10-16T10:00:16;3.03;;;1.20;;
13834;SDS011;6988;52.614;13.500;2022-10-16T10:05:16;2.50;;;1.67;;
13834;SDS011;6988;52.614;13.500;2022-10-16T10:10:18;1.40;;;1.20;;
13834;SDS011;6988;52.614;13.500;2022-10-16T10:15:15;2.17;;;1.10;;
13834;SDS011;6988;52.614;13.500;2022-10-16T10:20:15;1.93;;;1.43;;
13834;SDS011;6988;52.614;13.500;2022-10-16T10:25:17;2.70;;;1.40;;
13834;SDS011;6988;52.614;13.500;2022-10-16T10:30:29;1.83;;;1.20;;
13834;SDS011;6988;52.614;13.500;2022-10-16T10:35:33;3.87;;;1.20;;
13834;SDS011;6988;52.614;13.500;2022-10-16T10:40:39;1.50;;;1.00;;
13834;SDS011;6988;52.614;13.500;2022-10-16T10:45:43;2.67;;;1.10;;
13834;SDS011;6988;52.614;13.500;2022-10-16T10:50:39;1.20;;;0.90;;
13834;SDS011;6988;52.614;13.500;2022-10-16T10:55:40;1.00;;;0.83;;
13834;SDS011;6988;52.614;13.500;2022-10-16T11:00:45;1.20;;;0.80;;
13834;SDS011;6988;52.614;13.500;2022-10-16T11:05:51;1.90;;;1.00;;
13834;SDS011;6988;52.614;13.500;2022-10-16T11:10:50;1.07;;;0.90;;
13834;SDS011;6988;52.614;13.500;2022-10-16T11:15:48;1.73;;;0.80;;
13834;SDS011;6988;52.614;13.500;2022-10-16T11:20:49;2.53;;;0.80;;
13834;SDS011;6988;52.614;13.500;2022-10-16T11:25:47;1.23;;;0.80;;
13834;SDS011;6988;52.614;13.500;2022-10-16T11:30:41;1.13;;;0.80;;
13834;SDS011;6988;52.614;13.500;2022-10-16T11:35:43;1.13;;;0.80;;
13834;SDS011;6988;52.614;13.500;2022-10-16T11:40:42;0.80;;;0.67;;
13834;SDS011;6988;52.614;13.500;2022-10-16T11:45:41;1.40;;;0.90;;
13834;SDS011;6988;52.614;13.500;2022-10-16T11:50:38;1.33;;;0.80;;
13834;SDS011;6988;52.614;13.500;2022-10-16T11:55:40;1.40;;;0.77;;
13834;SDS011;6988;52.614;13.500;2022-10-16T12:00:36;3.07;;;0.80;;
13834;SDS011;6988;52.614;13.500;2022-10-16T12:05:52;1.90;;;0.70;;
13834;SDS011;6988;52.614;13.500;2022-10-16T12:11:08;0.93;;;0.70;;
13834;SDS011;6988;52.614;13.500;2022-10-16T12:16:22;2.27;;;0.70;;
13834;SDS011;6988;52.614;13.500;2022-10-16T12:21:16;0.73;;;0.50;;
13834;SDS011;6988;52.614;13.500;2022-10-16T12:26:10;1.40;;;0.80;;
13834;SDS011;6988;52.614;13.500;2022-10-16T12:31:02;1.60;;;0.70;;
13834;SDS011;6988;52.614;13.500;2022-10-16T12:35:59;2.20;;;0.60;;
13834;SDS011;6988;52.614;13.500;2022-10-16T12:40:56;3.05;;;0.70;;
13834;SDS011;6988;52.614;13.500;2022-10-16T12:45:58;1.70;;;0.70;;
13834;SDS011;6988;52.614;13.500;2022-10-16T12:50:53;1.10;;;0.68;;
13834;SDS011;6988;52.614;13.500;2022-10-16T12:55:48;1.40;;;0.50;;
13834;SDS011;6988;52.614;13.500;2022-10-16T13:00:54;0.70;;;0.55;;
13834;SDS011;6988;52.614;13.500;2022-10-16T13:05:57;0.80;;;0.65;;
13834;SDS011;6988;52.614;13.500;2022-10-16T13:11:07;0.60;;;0.50;;
13834;SDS011;6988;52.614;13.500;2022-10-16T13:16:13;1.35;;;0.50;;
13834;SDS011;6988;52.614;13.500;2022-10-16T13:21:19;0.70;;;0.30;;
13834;SDS011;6988;52.614;13.500;2022-10-16T13:26:30;0.45;;;0.40;;
13834;SDS011;6988;52.614;13.500;2022-10-16T13:31:32;0.87;;;0.47;;
13834;SDS011;6988;52.614;13.500;2022-10-16T13:36:24;0.68;;;0.40;;
13834;SDS011;6988;52.614;13.500;2022-10-16T13:41:20;1.10;;;0.60;;
13834;SDS011;6988;52.614;13.500;2022-10-16T13:46:14;1.00;;;0.50;;
13834;SDS011;6988;52.614;13.500;2022-10-16T13:51:12;1.00;;;0.47;;
13834;SDS011;6988;52.614;13.500;2022-10-16T13:56:06;1.17;;;0.50;;
13834;SDS011;6988;52.614;13.500;2022-10-16T14:01:03;0.40;;;0.40;;
13834;SDS011;6988;52.614;13.500;2022-10-16T14:06:11;0.90;;;0.47;;
13834;SDS011;6988;52.614;13.500;2022-10-16T14:11:06;0.97;;;0.47;;
13834;SDS011;6988;52.614;13.500;2022-10-16T14:15:58;1.37;;;0.40;;
13834;SDS011;6988;52.614;13.500;2022-10-16T14:21:02;4.10;;;0.70;;
13834;SDS011;6988;52.614;13.500;2022-10-16T14:26:06;0.53;;;0.40;;
13834;SDS011;6988;52.614;13.500;2022-10-16T14:31:19;0.85;;;0.50;;
13834;SDS011;6988;52.614;13.500;2022-10-16T14:36:18;1.98;;;0.50;;
13834;SDS011;6988;52.614;13.500;2022-10-16T14:41:13;1.10;;;0.57;;
13834;SDS011;6988;52.614;13.500;2022-10-16T14:46:08;1.00;;;0.60;;
13834;SDS011;6988;52.614;13.500;2022-10-16T14:51:08;1.85;;;0.60;;
13834;SDS011;6988;52.614;13.500;2022-10-16T14:56:05;0.50;;;0.50;;
13834;SDS011;6988;52.614;13.500;2022-10-16T15:01:00;2.67;;;0.80;;
13834;SDS011;6988;52.614;13.500;2022-10-16T15:05:52;1.50;;;0.80;;
13834;SDS011;6988;52.614;13.500;2022-10-16T15:10:43;1.00;;;0.70;;
13834;SDS011;6988;52.614;13.500;2022-10-16T15:15:36;1.40;;;0.60;;
13834;SDS011;6988;52.614;13.500;2022-10-16T15:20:33;1.97;;;0.93;;
13834;SDS011;6988;52.614;13.500;2022-10-16T15:25:31;0.60;;;0.60;;
13834;SDS011;6988;52.614;13.500;2022-10-16T15:30:27;2.20;;;0.90;;
13834;SDS011;6988;52.614;13.500;2022-10-16T15:35:19;1.10;;;0.80;;
13834;SDS011;6988;52.614;13.500;2022-10-16T15:40:12;2.23;;;1.00;;
13834;SDS011;6988;52.614;13.500;2022-10-16T15:45:05;1.33;;;0.70;;
13834;SDS011;6988;52.614;13.500;2022-10-16T15:49:59;1.93;;;0.70;;
13834;SDS011;6988;52.614;13.500;2022-10-16T15:54:51;1.13;;;0.80;;
13834;SDS011;6988;52.614;13.500;2022-10-16T15:59:44;4.97;;;0.80;;
13834;SDS011;6988;52.614;13.500;2022-10-16T16:04:35;2.67;;;0.97;;
13834;SDS011;6988;52.614;13.500;2022-10-16T16:09:28;1.27;;;0.73;;
13834;SDS011;6988;52.614;13.500;2022-10-16T16:14:20;2.07;;;1.00;;
13834;SDS011;6988;52.614;13.500;2022-10-16T16:19:13;2.33;;;1.00;;
13834;SDS011;6988;52.614;13.500;2022-10-16T16:24:06;1.63;;;1.20;;
13834;SDS011;6988;52.614;13.500;2022-10-16T16:28:58;4.50;;;1.40;;
13834;SDS011;6988;52.614;13.500;2022-10-16T16:33:51;2.53;;;1.40;;
13834;SDS011;6988;52.614;13.500;2022-10-16T16:38:44;2.63;;;1.90;;
13834;SDS011;6988;52.614;13.500;2022-10-16T16:43:36;3.17;;;2.20;;
13834;SDS011;6988;52.614;13.500;2022-10-16T16:48:28;4.50;;;3.10;;
13834;SDS011;6988;52.614;13.500;2022-10-16T16:53:20;4.47;;;2.90;;
13834;SDS011;6988;52.614;13.500;2022-10-16T16:58:13;3.73;;;3.20;;
13834;SDS011;6988;52.614;13.500;2022-10-16T17:03:05;4.23;;;3.40;;
13834;SDS011;6988;52.614;13.500;2022-10-16T17:07:57;4.57;;;3.33;;
13834;SDS011;6988;52.614;13.500;2022-10-16T17:12:48;4.53;;;3.58;;
13834;SDS011;6988;52.614;13.500;2022-10-16T17:17:42;5.93;;;4.03;;
13834;SDS011;6988;52.614;13.500;2022-10-16T17:22:33;7.13;;;5.20;;
13834;SDS011;6988;52.614;13.500;2022-10-16T17:27:25;7.73;;;6.53;;
13834;SDS011;6988;52.614;13.500;2022-10-16T17:32:17;6.80;;;4.77;;
13834;SDS011;6988;52.614;13.500;2022-10-16T17:37:11;4.90;;;3.60;;
13834;SDS011;6988;52.614;13.500;2022-10-16T17:42:02;6.37;;;3.23;;
13834;SDS011;6988;52.614;13.500;2022-10-16T17:46:54;5.30;;;3.13;;
13834;SDS011;6988;52.614;13.500;2022-10-16T17:51:48;4.63;;;3.80;;
13834;SDS011;6988;52.614;13.500;2022-10-16T17:56:42;4.70;;;3.57;;
13834;SDS011;6988;52.614;13.500;2022-10-16T18:01:35;5.43;;;4.40;;
13834;SDS011;6988;52.614;13.500;2022-10-16T18:06:30;8.77;;;4.20;;
13834;SDS011;6988;52.614;13.500;2022-10-16T18:11:22;4.83;;;3.27;;
13834;SDS011;6988;52.614;13.500;2022-10-16T18:16:16;7.07;;;4.67;;
13834;SDS011;6988;52.614;13.500;2022-10-16T18:21:08;7.33;;;4.80;;
13834;SDS011;6988;52.614;13.500;2022-10-16T18:26:03;6.37;;;4.27;;
13834;SDS011;6988;52.614;13.500;2022-10-16T18:30:57;6.20;;;4.00;;
13834;SDS011;6988;52.614;13.500;2022-10-16T18:35:52;5.47;;;3.53;;
13834;SDS011;6988;52.614;13.500;2022-10-16T18:40:44;6.27;;;4.40;;
13834;SDS011;6988;52.614;13.500;2022-10-16T18:45:36;5.97;;;4.43;;
13834;SDS011;6988;52.614;13.500;2022-10-16T18:50:28;4.53;;;3.77;;
13834;SDS011;6988;52.614;13.500;2022-10-16T18:55:21;5.70;;;3.70;;
13834;SDS011;6988;52.614;13.500;2022-10-16T19:00:14;5.63;;;3.50;;
13834;SDS011;6988;52.614;13.500;2022-10-16T19:05:06;4.43;;;2.97;;
13834;SDS011;6988;52.614;13.500;2022-10-16T19:10:00;4.03;;;3.07;;
13834;SDS011;6988;52.614;13.500;2022-10-16T19:14:53;4.37;;;3.03;;
13834;SDS011;6988;52.614;13.500;2022-10-16T19:19:44;3.73;;;2.70;;
13834;SDS011;6988;52.614;13.500;2022-10-16T19:24:36;4.07;;;3.10;;
13834;SDS011;6988;52.614;13.500;2022-10-16T19:29:28;6.83;;;3.50;;
13834;SDS011;6988;52.614;13.500;2022-10-16T19:34:21;5.63;;;4.07;;
13834;SDS011;6988;52.614;13.500;2022-10-16T19:39:14;7.80;;;4.20;;
13834;SDS011;6988;52.614;13.500;2022-10-16T19:44:07;7.10;;;3.97;;
13834;SDS011;6988;52.614;13.500;2022-10-16T19:49:04;6.57;;;4.40;;
13834;SDS011;6988;52.614;13.500;2022-10-16T19:54:00;5.67;;;3.80;;
13834;SDS011;6988;52.614;13.500;2022-10-16T19:58:54;6.53;;;3.90;;
13834;SDS011;6988;52.614;13.500;2022-10-16T20:03:48;5.43;;;4.40;;
13834;SDS011;6988;52.614;13.500;2022-10-16T20:08:40;6.20;;;4.10;;
13834;SDS011;6988;52.614;13.500;2022-10-16T20:13:36;5.83;;;4.60;;
13834;SDS011;6988;52.614;13.500;2022-10-16T20:18:27;7.70;;;4.97;;
13834;SDS011;6988;52.614;13.500;2022-10-16T20:23:19;7.70;;;4.83;;
13834;SDS011;6988;52.614;13.500;2022-10-16T20:28:14;10.77;;;5.07;;
13834;SDS011;6988;52.614;13.500;2022-10-16T20:33:10;7.13;;;4.67;;
13834;SDS011;6988;52.614;13.500;2022-10-16T20:38:02;8.23;;;4.87;;
13834;SDS011;6988;52.614;13.500;2022-10-16T20:42:54;5.57;;;4.50;;
13834;SDS011;6988;52.614;13.500;2022-10-16T20:47:46;8.57;;;5.50;;
13834;SDS011;6988;52.614;13.500;2022-10-16T20:52:39;8.10;;;5.10;;
13834;SDS011;6988;52.614;13.500;2022-10-16T20:57:31;5.83;;;4.20;;
13834;SDS011;6988;52.614;13.500;2022-10-16T21:02:23;7.73;;;5.07;;
13834;SDS011;6988;52.614;13.500;2022-10-16T21:07:15;9.17;;;5.27;;
13834;SDS011;6988;52.614;13.500;2022-10-16T21:12:08;7.27;;;4.80;;
13834;SDS011;6988;52.614;13.500;2022-10-16T21:17:00;7.37;;;4.20;;
13834;SDS011;6988;52.614;13.500;2022-10-16T21:21:52;5.80;;;4.43;;
13834;SDS011;6988;52.614;13.500;2022-10-16T21:26:43;6.73;;;4.40;;
13834;SDS011;6988;52.614;13.500;2022-10-16T21:31:36;5.93;;;5.00;;
13834;SDS011;6988;52.614;13.500;2022-10-16T21:36:29;11.13;;;5.80;;
13834;SDS011;6988;52.614;13.500;2022-10-16T21:41:23;5.97;;;5.23;;
13834;SDS011;6988;52.614;13.500;2022-10-16T22:04:37;5.33;;;4.53;;
13834;SDS011;6988;52.614;13.500;2022-10-16T22:09:29;5.63;;;4.10;;
13834;SDS011;6988;52.614;13.500;2022-10-16T22:14:20;6.57;;;4.60;;
13834;SDS011;6988;52.614;13.500;2022-10-16T22:19:12;6.90;;;5.00;;
13834;SDS011;6988;52.614;13.500;2022-10-16T22:24:08;8.03;;;4.77;;
13834;SDS011;6988;52.614;13.500;2022-10-16T22:29:00;7.13;;;5.27;;
13834;SDS011;6988;52.614;13.500;2022-10-16T22:33:53;7.60;;;5.40;;
13834;SDS011;6988;52.614;13.500;2022-10-16T22:38:45;9.67;;;5.57;;
13834;SDS011;6988;52.614;13.500;2022-10-16T22:43:39;6.03;;;5.23;;
13834;SDS011;6988;52.614;13.500;2022-10-16T22:48:33;7.63;;;5.63;;
13834;SDS011;6988;52.614;13.500;2022-10-16T22:53:26;6.67;;;5.70;;
13834;SDS011;6988;52.614;13.500;2022-10-16T22:58:18;6.60;;;5.90;;
13834;SDS011;6988;52.614;13.500;2022-10-16T23:03:12;9.27;;;5.80;;
13834;SDS011;6988;52.614;13.500;2022-10-16T23:08:04;7.00;;;5.50;;
13834;SDS011;6988;52.614;13.500;2022-10-16T23:12:57;11.13;;;6.43;;
13834;SDS011;6988;52.614;13.500;2022-10-16T23:17:48;6.63;;;6.03;;
13834;SDS011;6988;52.614;13.500;2022-10-16T23:22:41;9.60;;;6.90;;
13834;SDS011;6988;52.614;13.500;2022-10-16T23:27:33;8.43;;;7.00;;
13834;SDS011;6988;52.614;13.500;2022-10-16T23:32:25;9.43;;;6.73;;
13834;SDS011;6988;52.614;13.500;2022-10-16T23:37:17;9.63;;;7.40;;
13834;SDS011;6988;52.614;13.500;2022-10-16T23:42:10;9.17;;;7.00;;
13834;SDS011;6988;52.614;13.500;2022-10-16T23:47:01;7.50;;;6.70;;
13834;SDS011;6988;52.614;13.500;2022-10-16T23:51:53;7.83;;;6.47;;
13834;SDS011;6988;52.614;13.500;2022-10-16T23:56:45;8.33;;;6.40;;
